This is the latest recevied weather packets stored in our database for station/object EA1GHG-11. If no packets are shown the sender has not sent any weather packets the latest 10 day(s).
| Time | Temp. | Humidity | Pressure | Rain* | Wind** | Luminosity | Snow |
|---|---|---|---|---|---|---|---|
| 1788443975 | 31.67° C | 43% | 1025.2 hPa | - | - | - | - |
| 1788442475 | 31.67° C | 48% | 1025.4 hPa | - | - | - | - |
| 1788440975 | 31.67° C | 47% | 1025.4 hPa | - | - | - | - |
| 1788439475 | 30.56° C | 55% | 1025.5 hPa | - | - | - | - |
| 1788437975 | 29.44° C | 76% | 1025.7 hPa | - | - | - | - |
| 1788436490 | 27.78° C | 100% | 1026.2 hPa | - | - | - | - |
| 1788434975 | 26.67° C | 100% | 1026.4 hPa | - | - | - | - |
| 1788433475 | 26.67° C | 100% | 1026.5 hPa | - | - | - | - |
| 1788431975 | 26.11° C | 100% | 1026.7 hPa | - | - | - | - |
| 1788430474 | 24.44° C | 100% | 1026.8 hPa | - | - | - | - |
| 1788428974 | 22.78° C | 100% | 1026.8 hPa | - | - | - | - |
| 1788427474 | 21.11° C | 100% | 1026.7 hPa | - | - | - | - |
| 1788426015 | 20° C | 100% | 1026.8 hPa | - | - | - | - |
| 1788425974 | 20° C | 100% | 1026.8 hPa | - | - | - | - |
| 1788424474 | 19.44° C | 100% | 1026.9 hPa | - | - | - | - |
| 1788423874 | 18.33° C | 100% | 1026.9 hPa | - | - | - | - |
| 1788422374 | 16.67° C | 100% | 1027 hPa | - | - | - | - |
| 1788420910 | 15.56° C | 100% | 1027.1 hPa | - | - | - | - |
| 1788420874 | 15.56° C | 100% | 1027.1 hPa | - | - | - | - |
| 1788419374 | 13.33° C | 100% | 1027.2 hPa | - | - | - | - |
| 1788417874 | 12.78° C | 100% | 1026.9 hPa | - | - | - | - |
| 1788416374 | 12.78° C | 100% | 1026.7 hPa | - | - | - | - |
| 1788414873 | 12.22° C | 100% | 1026.6 hPa | - | - | - | - |
| 1788413373 | 12.22° C | 100% | 1026.5 hPa | - | - | - | - |
| 1788411873 | 12.78° C | 100% | 1026.3 hPa | - | - | - | - |
* Rain since midnight (hover to see other rain measurements)
** Current wind speed in m/s (hover to see current wind gust speed)